createdAt,value
2019-03-18T00:00:17.470Z,8.70
2019-03-18T00:02:46.887Z,8.70
2019-03-18T00:05:16.298Z,8.60
2019-03-18T00:07:45.713Z,8.60
2019-03-18T00:10:15.113Z,8.50
2019-03-18T00:12:44.621Z,8.50
2019-03-18T00:15:14.033Z,8.40
2019-03-18T00:17:43.442Z,8.30
2019-03-18T00:20:12.930Z,8.30
2019-03-18T00:22:42.327Z,8.30
2019-03-18T00:25:11.830Z,8.20
2019-03-18T00:27:41.255Z,8.20
2019-03-18T00:30:12.889Z,8.20
2019-03-18T00:32:42.289Z,8.20
2019-03-18T00:35:12.154Z,8.20
2019-03-18T00:37:41.548Z,8.10
2019-03-18T00:40:12.234Z,8.10
2019-03-18T00:42:41.463Z,8.10
2019-03-18T00:45:15.189Z,8.10
2019-03-18T00:47:41.779Z,8.10
2019-03-18T00:50:11.014Z,8.10
2019-03-18T00:52:40.356Z,8.10
2019-03-18T00:55:09.795Z,8.10
2019-03-18T00:57:39.141Z,8.10
2019-03-18T01:00:08.586Z,8.10
2019-03-18T01:02:37.891Z,8.10
2019-03-18T01:05:07.302Z,8.10
2019-03-18T01:07:36.615Z,8.10
2019-03-18T01:10:07.250Z,8.00
2019-03-18T01:12:36.633Z,8.00
2019-03-18T01:15:06.267Z,8.00
2019-03-18T01:17:35.506Z,8.00
2019-03-18T01:20:05.472Z,7.90
2019-03-18T01:22:34.801Z,7.80
2019-03-18T01:25:04.150Z,7.80
2019-03-18T01:27:33.422Z,7.80
2019-03-18T01:30:02.737Z,7.80
2019-03-18T01:32:32.044Z,7.80
2019-03-18T01:35:01.369Z,7.80
2019-03-18T01:37:30.597Z,7.70
2019-03-18T01:40:00.179Z,7.70
2019-03-18T01:42:29.728Z,7.70
2019-03-18T01:44:58.950Z,7.60
2019-03-18T01:47:28.299Z,7.60
2019-03-18T01:49:57.547Z,7.60
2019-03-18T01:52:26.779Z,7.40
2019-03-18T01:54:58.223Z,7.20
2019-03-18T01:57:27.513Z,7.00
2019-03-18T01:59:56.784Z,7.00
2019-03-18T02:02:26.591Z,7.00
2019-03-18T02:04:55.913Z,6.90
2019-03-18T02:07:25.135Z,6.80
2019-03-18T02:09:54.398Z,6.70
2019-03-18T02:12:23.592Z,6.70
2019-03-18T02:14:52.875Z,6.70
2019-03-18T02:17:22.181Z,6.60
2019-03-18T02:19:51.481Z,6.50
2019-03-18T02:22:21.084Z,6.50
2019-03-18T02:24:50.309Z,6.40
2019-03-18T02:27:19.583Z,6.20
2019-03-18T02:29:48.891Z,6.00
2019-03-18T02:32:18.145Z,5.90
2019-03-18T02:34:47.427Z,5.80
2019-03-18T02:37:16.740Z,5.80
2019-03-18T02:39:45.984Z,5.70
2019-03-18T02:42:15.220Z,5.70
2019-03-18T02:44:44.520Z,5.60
2019-03-18T02:47:13.853Z,5.50
2019-03-18T02:49:43.020Z,5.50
2019-03-18T02:52:12.231Z,5.40
2019-03-18T02:54:41.639Z,5.50
2019-03-18T02:57:10.838Z,5.50
2019-03-18T02:59:40.064Z,5.50
2019-03-18T03:02:09.438Z,5.50
2019-03-18T03:04:38.694Z,5.50
2019-03-18T03:07:07.994Z,5.50
2019-03-18T03:09:37.223Z,5.40
2019-03-18T03:12:07.125Z,5.40
2019-03-18T03:14:36.358Z,5.30
2019-03-18T03:17:05.685Z,5.30
2019-03-18T03:19:35.089Z,5.30
2019-03-18T03:22:04.327Z,5.20
2019-03-18T03:24:34.145Z,5.20
2019-03-18T03:27:03.466Z,5.30
2019-03-18T03:29:32.690Z,5.30
2019-03-18T03:32:01.963Z,5.30
2019-03-18T03:34:31.259Z,5.30
2019-03-18T03:37:00.496Z,5.20
2019-03-18T03:39:29.867Z,5.20
2019-03-18T03:41:59.610Z,5.10
2019-03-18T03:44:28.874Z,5.00
2019-03-18T03:46:58.118Z,5.00
2019-03-18T03:49:27.431Z,5.00
2019-03-18T03:51:56.666Z,5.10
2019-03-18T03:54:25.899Z,5.10
2019-03-18T03:56:55.315Z,5.10
2019-03-18T03:59:24.849Z,5.20
2019-03-18T04:01:54.150Z,5.10
2019-03-18T04:04:23.386Z,5.10
2019-03-18T04:06:52.711Z,5.10
2019-03-18T04:09:22.031Z,5.20
2019-03-18T04:11:51.407Z,5.10
2019-03-18T04:14:20.655Z,5.10
2019-03-18T04:17:00.670Z,5.10
2019-03-18T04:19:20.730Z,5.20
2019-03-18T04:21:50.906Z,5.20
2019-03-18T04:24:20.409Z,5.30
2019-03-18T04:26:49.760Z,5.30
2019-03-18T04:29:21.817Z,5.30
2019-03-18T04:31:51.167Z,5.30
2019-03-18T04:34:20.401Z,5.40
2019-03-18T04:36:50.346Z,5.30
2019-03-18T04:39:19.593Z,5.30
2019-03-18T04:41:48.865Z,5.30
2019-03-18T04:44:19.112Z,5.30
2019-03-18T04:46:48.559Z,5.30
2019-03-18T04:49:17.800Z,5.30
2019-03-18T04:51:47.110Z,5.20
2019-03-18T04:54:16.450Z,5.20
2019-03-18T04:56:45.684Z,5.20
2019-03-18T04:59:15.300Z,5.20
2019-03-18T05:01:44.537Z,5.20
2019-03-18T05:04:13.689Z,5.30
2019-03-18T05:06:43.038Z,5.20
2019-03-18T05:09:12.263Z,5.30
2019-03-18T05:11:41.494Z,5.30
2019-03-18T05:14:10.828Z,5.20
2019-03-18T05:16:41.294Z,5.20
2019-03-18T05:19:10.515Z,5.30
2019-03-18T05:21:39.977Z,5.30
2019-03-18T05:24:09.185Z,5.30
2019-03-18T05:26:38.475Z,5.40
2019-03-18T05:29:07.710Z,5.40
2019-03-18T05:31:36.939Z,5.40
2019-03-18T05:34:06.209Z,5.40
2019-03-18T05:36:35.418Z,5.40
2019-03-18T05:39:05.722Z,5.40
2019-03-18T05:41:35.047Z,5.40
2019-03-18T05:44:04.391Z,5.40
2019-03-18T05:46:33.814Z,5.40
2019-03-18T05:49:03.123Z,5.50
2019-03-18T05:51:32.355Z,5.40
2019-03-18T05:54:01.684Z,5.50
2019-03-18T05:56:31.377Z,5.50
2019-03-18T05:59:00.622Z,5.50
2019-03-18T06:01:29.870Z,5.50
2019-03-18T06:03:59.122Z,5.50
2019-03-18T06:06:28.447Z,5.50
2019-03-18T06:08:57.796Z,5.60
2019-03-18T06:11:27.095Z,5.60
2019-03-18T06:13:56.771Z,5.60
2019-03-18T06:16:26.272Z,5.60
2019-03-18T06:18:55.584Z,5.60
2019-03-18T06:21:24.814Z,5.60
2019-03-18T06:23:54.054Z,5.60
2019-03-18T06:26:23.403Z,5.60
2019-03-18T06:28:52.717Z,5.60
2019-03-18T06:31:21.968Z,5.60
2019-03-18T06:33:51.208Z,5.60
2019-03-18T06:36:20.445Z,5.70
2019-03-18T06:38:49.683Z,5.60
2019-03-18T06:41:18.926Z,5.60
2019-03-18T06:43:48.211Z,5.70
2019-03-18T06:46:17.448Z,5.70
2019-03-18T06:48:46.670Z,5.80
2019-03-18T06:51:16.173Z,5.80
2019-03-18T06:53:45.389Z,5.80
2019-03-18T06:56:14.721Z,5.80
2019-03-18T06:58:43.951Z,5.90
2019-03-18T07:01:13.319Z,5.90
2019-03-18T07:03:42.630Z,5.90
2019-03-18T07:06:11.793Z,6.00
2019-03-18T07:08:41.076Z,6.00
2019-03-18T07:11:10.603Z,6.00
2019-03-18T07:13:39.909Z,6.00
2019-03-18T07:16:09.259Z,6.00
2019-03-18T07:18:38.508Z,6.00
2019-03-18T07:21:07.756Z,6.10
2019-03-18T07:23:37.109Z,6.10
2019-03-18T07:26:06.839Z,6.00
2019-03-18T07:28:36.088Z,6.10
2019-03-18T07:31:05.687Z,6.10
2019-03-18T07:33:34.938Z,6.10
2019-03-18T07:36:04.194Z,6.10
2019-03-18T07:38:33.510Z,6.10
2019-03-18T07:41:02.750Z,6.10
2019-03-18T07:43:32.028Z,6.10
2019-03-18T07:46:01.240Z,6.10
2019-03-18T07:48:31.563Z,6.20
2019-03-18T07:51:01.231Z,6.30
2019-03-18T07:53:30.615Z,6.40
2019-03-18T07:56:01.849Z,6.40
2019-03-18T07:58:31.164Z,6.50
2019-03-18T08:01:00.662Z,6.50
2019-03-18T08:03:30.139Z,6.60
2019-03-18T08:05:59.366Z,6.60
2019-03-18T08:08:28.776Z,6.80
2019-03-18T08:10:58.138Z,6.80
2019-03-18T08:13:27.441Z,6.80
2019-03-18T08:15:56.682Z,6.80
2019-03-18T08:18:26.273Z,6.70
2019-03-18T08:20:55.551Z,6.70
2019-03-18T08:23:24.861Z,6.70
2019-03-18T08:25:54.223Z,6.70
2019-03-18T08:28:23.475Z,6.70
2019-03-18T08:30:53.256Z,6.60
2019-03-18T08:33:22.512Z,6.60
2019-03-18T08:35:51.812Z,6.60
2019-03-18T08:38:21.156Z,6.60
2019-03-18T08:40:50.383Z,6.70
2019-03-18T08:43:20.096Z,6.80
2019-03-18T08:45:49.459Z,6.80
2019-03-18T08:48:18.727Z,6.80
2019-03-18T08:50:47.966Z,6.80
2019-03-18T08:53:17.233Z,6.90
2019-03-18T08:55:46.589Z,6.90
2019-03-18T08:58:15.894Z,7.00
2019-03-18T09:00:45.218Z,7.00
2019-03-18T09:03:15.069Z,7.10
2019-03-18T09:05:44.312Z,7.20
2019-03-18T09:08:13.618Z,7.30
2019-03-18T09:10:43.702Z,7.40
2019-03-18T09:13:12.950Z,7.50
2019-03-18T09:15:42.183Z,7.40
2019-03-18T09:18:12.029Z,7.50
2019-03-18T09:20:41.351Z,7.60
2019-03-18T09:23:10.587Z,7.60
2019-03-18T09:25:39.825Z,7.60
2019-03-18T09:28:09.090Z,7.60
2019-03-18T09:30:38.335Z,7.50
2019-03-18T09:33:07.571Z,7.60
2019-03-18T09:35:36.850Z,7.60
2019-03-18T09:38:06.160Z,7.60
2019-03-18T09:40:35.391Z,7.60
2019-03-18T09:43:04.713Z,7.60
2019-03-18T09:45:34.053Z,7.50
2019-03-18T09:48:03.326Z,7.50
2019-03-18T09:50:32.643Z,7.50
2019-03-18T09:53:01.903Z,7.50
2019-03-18T09:55:31.137Z,7.50
2019-03-18T09:58:00.468Z,7.60
2019-03-18T10:00:29.771Z,7.60
2019-03-18T10:02:59.126Z,7.70
2019-03-18T10:05:28.426Z,7.80
2019-03-18T10:07:57.728Z,7.90
2019-03-18T10:10:27.519Z,8.00
2019-03-18T10:12:57.541Z,8.00
2019-03-18T10:15:26.780Z,7.90
2019-03-18T10:17:56.033Z,8.00
2019-03-18T10:20:25.657Z,8.00
2019-03-18T10:22:55.000Z,8.00
2019-03-18T10:25:24.236Z,8.00
2019-03-18T10:27:53.533Z,8.10
2019-03-18T10:30:22.917Z,8.20
2019-03-18T10:32:52.138Z,8.20
2019-03-18T10:35:21.367Z,8.30
2019-03-18T10:37:50.695Z,8.30
2019-03-18T10:40:19.925Z,8.40
2019-03-18T10:42:49.170Z,8.50
2019-03-18T10:45:18.519Z,8.60
2019-03-18T10:47:47.823Z,8.60
2019-03-18T10:50:17.453Z,8.60
2019-03-18T10:52:46.806Z,8.70
2019-03-18T10:55:16.145Z,8.70
2019-03-18T10:57:45.551Z,8.80
2019-03-18T11:00:15.115Z,8.80
2019-03-18T11:02:45.301Z,8.90
2019-03-18T11:05:15.079Z,8.90
2019-03-18T11:07:44.391Z,8.80
2019-03-18T11:10:13.818Z,8.80
2019-03-18T11:12:43.691Z,8.80
2019-03-18T11:15:13.212Z,8.80
2019-03-18T11:17:42.516Z,8.70
2019-03-18T11:20:12.292Z,8.70
2019-03-18T11:22:41.529Z,8.70
2019-03-18T11:25:10.878Z,8.60
2019-03-18T11:27:40.600Z,8.60
2019-03-18T11:30:10.495Z,8.50
2019-03-18T11:32:39.819Z,8.40
2019-03-18T11:35:09.189Z,8.40
2019-03-18T11:37:38.446Z,8.40
2019-03-18T11:40:08.593Z,8.40
2019-03-18T11:42:37.852Z,7.90
2019-03-18T11:45:08.371Z,7.50
2019-03-18T11:47:37.837Z,7.30
2019-03-18T11:50:11.519Z,6.90
2019-03-18T11:52:38.649Z,6.70
2019-03-18T11:55:09.679Z,6.60
2019-03-18T11:57:38.946Z,6.60
2019-03-18T12:00:09.623Z,6.50
2019-03-18T12:02:38.938Z,6.50
2019-03-18T12:05:10.699Z,6.50
2019-03-18T12:07:39.970Z,6.50
2019-03-18T12:10:11.433Z,6.50
2019-03-18T12:12:40.659Z,6.50
2019-03-18T12:15:11.478Z,6.50
2019-03-18T12:17:40.792Z,6.60
2019-03-18T12:20:23.223Z,6.50
2019-03-18T12:22:42.360Z,6.50
2019-03-18T12:25:11.602Z,6.60
2019-03-18T12:27:41.166Z,6.60
2019-03-18T12:30:14.012Z,6.60
2019-03-18T12:32:43.705Z,6.60
2019-03-18T12:35:12.945Z,6.60
2019-03-18T12:37:42.279Z,6.70
2019-03-18T12:40:12.032Z,6.70
2019-03-18T12:42:41.391Z,6.70
2019-03-18T12:45:11.720Z,6.70
2019-03-18T12:47:40.955Z,6.70
2019-03-18T12:50:13.904Z,6.70
2019-03-18T12:52:43.217Z,6.70
2019-03-18T12:55:12.447Z,6.70
2019-03-18T12:57:41.835Z,6.80
2019-03-18T13:00:14.326Z,6.80
2019-03-18T13:02:44.256Z,6.90
2019-03-18T13:05:13.713Z,6.90
2019-03-18T13:07:42.952Z,7.00
2019-03-18T13:10:13.158Z,7.10
2019-03-18T13:12:42.580Z,7.10
2019-03-18T13:15:13.761Z,7.10
2019-03-18T13:17:44.124Z,7.20
2019-03-18T13:20:14.216Z,7.20
2019-03-18T13:22:43.824Z,7.40
2019-03-18T13:25:13.157Z,7.50
2019-03-18T13:27:42.608Z,7.80
2019-03-18T13:30:15.370Z,8.50
2019-03-18T13:32:45.594Z,9.00
2019-03-18T13:35:14.912Z,9.50
2019-03-18T13:37:44.332Z,10.10
2019-03-18T13:40:13.661Z,10.40
2019-03-18T13:42:42.967Z,10.90
2019-03-18T13:45:13.708Z,11.20
2019-03-18T13:47:43.069Z,11.50
2019-03-18T13:50:14.123Z,11.40
2019-03-18T13:52:43.899Z,11.00
2019-03-18T13:55:13.153Z,11.00
2019-03-18T13:57:42.384Z,10.80
2019-03-18T14:00:13.515Z,11.00
2019-03-18T14:02:43.091Z,11.20
2019-03-18T14:05:12.354Z,11.10
2019-03-18T14:07:43.204Z,11.20
2019-03-18T14:10:14.356Z,11.20
2019-03-18T14:12:43.580Z,11.00
2019-03-18T14:15:14.457Z,10.80
2019-03-18T14:17:43.759Z,10.70
2019-03-18T14:20:15.939Z,10.50
2019-03-18T14:22:45.273Z,10.30
2019-03-18T14:25:15.074Z,10.10
2019-03-18T14:27:44.418Z,9.90
2019-03-18T14:30:16.401Z,9.80
2019-03-18T14:32:45.944Z,9.70
2019-03-18T14:35:15.306Z,9.70
2019-03-18T14:37:44.705Z,9.60
2019-03-18T14:40:14.289Z,9.70
2019-03-18T14:42:43.590Z,9.60
2019-03-18T14:45:17.332Z,9.40
2019-03-18T14:47:47.452Z,9.30
2019-03-18T14:50:16.915Z,9.30
2019-03-18T14:52:46.295Z,9.50
2019-03-18T14:55:16.307Z,9.60
2019-03-18T14:57:45.595Z,9.50
2019-03-18T15:00:17.579Z,9.40
2019-03-18T15:02:46.859Z,9.30
2019-03-18T15:05:16.090Z,9.40
2019-03-18T15:07:45.718Z,9.50
2019-03-18T15:10:15.208Z,9.40
2019-03-18T15:12:44.763Z,9.40
2019-03-18T15:15:15.585Z,9.30
2019-03-18T15:17:44.952Z,9.20
2019-03-18T15:20:14.263Z,9.10
2019-03-18T15:22:43.570Z,9.10
2019-03-18T15:25:15.234Z,9.00
2019-03-18T15:27:44.569Z,8.80
2019-03-18T15:30:15.594Z,8.80
2019-03-18T15:32:44.921Z,8.80
2019-03-18T15:35:14.320Z,8.70
2019-03-18T15:37:43.567Z,8.70
2019-03-18T15:40:14.697Z,8.70
2019-03-18T15:42:43.966Z,8.70
2019-03-18T15:45:14.319Z,8.70
2019-03-18T15:47:44.070Z,8.60
2019-03-18T15:50:15.295Z,8.60
2019-03-18T15:52:44.590Z,8.50
2019-03-18T15:55:13.871Z,8.50
2019-03-18T15:57:43.217Z,8.50
2019-03-18T16:00:14.318Z,8.60
2019-03-18T16:02:43.536Z,8.60
2019-03-18T16:05:14.051Z,8.50
2019-03-18T16:07:43.301Z,8.50
2019-03-18T16:10:13.148Z,8.50
2019-03-18T16:12:42.427Z,8.40
2019-03-18T16:15:11.973Z,8.20
2019-03-18T16:17:41.845Z,8.10
2019-03-18T16:20:12.843Z,8.00
2019-03-18T16:22:42.663Z,8.00
2019-03-18T16:25:12.461Z,8.00
2019-03-18T16:27:41.747Z,7.90
2019-03-18T16:30:13.662Z,7.90
2019-03-18T16:32:43.020Z,7.80
2019-03-18T16:35:15.717Z,7.80
2019-03-18T16:37:43.684Z,7.70
2019-03-18T16:40:13.176Z,7.70
2019-03-18T16:42:42.535Z,7.60
2019-03-18T16:45:12.925Z,7.60
2019-03-18T16:47:42.195Z,7.50
2019-03-18T16:50:13.340Z,7.50
2019-03-18T16:52:42.587Z,7.50
2019-03-18T16:55:12.367Z,7.40
2019-03-18T16:57:41.681Z,7.40
2019-03-18T17:00:16.289Z,7.30
2019-03-18T17:02:45.614Z,7.20
2019-03-18T17:05:15.030Z,7.20
2019-03-18T17:07:44.354Z,7.20
2019-03-18T17:10:13.789Z,7.20
2019-03-18T17:12:43.284Z,7.10
2019-03-18T17:15:12.610Z,7.00
2019-03-18T17:17:41.902Z,6.90
2019-03-18T17:20:11.873Z,6.90
2019-03-18T17:22:48.795Z,6.80
2019-03-18T17:25:14.145Z,6.80
2019-03-18T17:27:43.405Z,6.70
2019-03-18T17:30:15.854Z,6.70
2019-03-18T17:32:45.165Z,6.70
2019-03-18T17:35:14.454Z,6.60
2019-03-18T17:37:44.128Z,6.60
2019-03-18T17:40:13.619Z,6.60
2019-03-18T17:42:42.858Z,6.60
2019-03-18T17:45:14.458Z,6.50
2019-03-18T17:47:43.923Z,6.40
2019-03-18T17:50:15.589Z,6.40
2019-03-18T17:52:44.959Z,6.40
2019-03-18T17:55:15.226Z,6.30
2019-03-18T17:57:44.594Z,6.30
2019-03-18T18:00:18.885Z,6.20
2019-03-18T18:02:48.207Z,6.20
2019-03-18T18:05:17.543Z,6.20
2019-03-18T18:07:46.871Z,6.10
2019-03-18T18:10:16.141Z,6.10
2019-03-18T18:12:45.480Z,6.10
2019-03-18T18:15:14.798Z,6.00
2019-03-18T18:17:44.141Z,6.00
2019-03-18T18:20:14.288Z,5.90
2019-03-18T18:22:43.473Z,5.90
2019-03-18T18:25:12.805Z,5.90
2019-03-18T18:27:42.246Z,5.80
2019-03-18T18:30:11.790Z,5.80
2019-03-18T18:32:41.493Z,5.80
2019-03-18T18:35:10.837Z,5.80
2019-03-18T18:37:40.158Z,5.80
2019-03-18T18:40:10.812Z,5.80
2019-03-18T18:42:40.270Z,5.70
2019-03-18T18:45:10.351Z,5.70
2019-03-18T18:47:39.691Z,5.70
2019-03-18T18:50:09.233Z,5.70
2019-03-18T18:52:39.376Z,5.60
2019-03-18T18:55:09.336Z,5.60
2019-03-18T18:57:38.700Z,5.60
2019-03-18T19:00:10.311Z,5.60
2019-03-18T19:02:39.643Z,5.60
2019-03-18T19:05:10.131Z,5.60
2019-03-18T19:07:39.807Z,5.50
2019-03-18T19:10:10.081Z,5.50
2019-03-18T19:12:39.347Z,5.40
2019-03-18T19:15:14.688Z,5.40
2019-03-18T19:17:44.048Z,5.40
2019-03-18T19:20:13.378Z,5.30
2019-03-18T19:22:42.716Z,5.30
2019-03-18T19:25:12.780Z,5.30
2019-03-18T19:27:42.034Z,5.30
2019-03-18T19:30:17.010Z,5.30
2019-03-18T19:32:46.899Z,5.30
2019-03-18T19:35:16.824Z,5.30
2019-03-18T19:37:46.085Z,5.30
2019-03-18T19:40:15.440Z,5.30
2019-03-18T19:42:44.805Z,5.20
2019-03-18T19:45:14.165Z,5.20
2019-03-18T19:47:43.485Z,5.30
2019-03-18T19:50:14.915Z,5.20
2019-03-18T19:52:44.165Z,5.20
2019-03-18T19:55:13.459Z,5.20
2019-03-18T19:57:42.761Z,5.20
2019-03-18T20:00:14.564Z,5.20
2019-03-18T20:02:43.921Z,5.20
2019-03-18T20:05:15.290Z,5.10
2019-03-18T20:07:44.150Z,5.10
2019-03-18T20:10:14.178Z,5.10
2019-03-18T20:12:43.553Z,5.00
2019-03-18T20:15:13.654Z,5.00
2019-03-18T20:17:43.000Z,5.00
2019-03-18T20:20:13.446Z,5.00
2019-03-18T20:22:43.004Z,5.00
2019-03-18T20:25:12.372Z,5.10
2019-03-18T20:27:41.617Z,5.00
2019-03-18T20:30:13.275Z,5.00
2019-03-18T20:32:42.872Z,5.00
2019-03-18T20:35:13.227Z,5.00
2019-03-18T20:37:42.649Z,5.00
2019-03-18T20:40:12.894Z,5.00
2019-03-18T20:42:43.282Z,5.00
2019-03-18T20:45:13.976Z,5.00
2019-03-18T20:47:43.459Z,5.00
2019-03-18T20:50:14.250Z,5.00
2019-03-18T20:52:43.838Z,5.00
2019-03-18T20:55:13.562Z,5.00
2019-03-18T20:57:43.018Z,5.00
2019-03-18T21:00:13.775Z,5.00
2019-03-18T21:02:43.141Z,5.00
2019-03-18T21:05:12.920Z,5.00
2019-03-18T21:07:42.381Z,5.00
2019-03-18T21:10:11.917Z,5.00
2019-03-18T21:12:41.609Z,5.00
2019-03-18T21:15:12.492Z,5.00
2019-03-18T21:17:41.872Z,5.00
2019-03-18T21:20:13.342Z,5.00
2019-03-18T21:22:42.757Z,5.00
2019-03-18T21:25:12.143Z,5.00
2019-03-18T21:27:41.466Z,5.00
2019-03-18T21:30:11.870Z,5.00
2019-03-18T21:32:41.335Z,5.00
2019-03-18T21:35:11.028Z,5.00
2019-03-18T21:37:40.329Z,5.00
2019-03-18T21:40:10.935Z,5.00
2019-03-18T21:42:40.232Z,5.00
2019-03-18T21:45:11.644Z,5.00
2019-03-18T21:47:41.051Z,4.90
2019-03-18T21:50:10.748Z,4.90
2019-03-18T21:52:40.131Z,4.80
2019-03-18T21:55:09.739Z,4.80
2019-03-18T21:57:39.888Z,4.80
2019-03-18T22:00:10.025Z,4.70
2019-03-18T22:02:39.276Z,4.70
2019-03-18T22:05:10.351Z,4.70
2019-03-18T22:07:39.713Z,4.60
2019-03-18T22:10:10.601Z,4.60
2019-03-18T22:12:40.050Z,4.50
2019-03-18T22:15:10.595Z,4.50
2019-03-18T22:17:39.936Z,4.40
2019-03-18T22:20:11.531Z,4.40
2019-03-18T22:22:40.773Z,4.40
2019-03-18T22:25:10.279Z,4.30
2019-03-18T22:27:39.616Z,4.30
2019-03-18T22:30:09.900Z,4.30
2019-03-18T22:32:39.240Z,4.20
2019-03-18T22:35:08.502Z,4.20
2019-03-18T22:37:37.741Z,4.20
2019-03-18T22:40:07.055Z,4.20
2019-03-18T22:42:36.383Z,4.20
2019-03-18T22:45:06.395Z,4.20
2019-03-18T22:47:35.647Z,4.20
2019-03-18T22:50:05.676Z,4.10
2019-03-18T22:52:35.603Z,4.10
2019-03-18T22:55:05.916Z,4.10
2019-03-18T22:57:35.274Z,4.10
2019-03-18T23:00:08.341Z,4.10
2019-03-18T23:02:37.527Z,4.10
2019-03-18T23:05:07.346Z,4.10
2019-03-18T23:07:36.605Z,4.10
2019-03-18T23:10:06.074Z,4.10
2019-03-18T23:12:35.313Z,4.10
2019-03-18T23:15:04.999Z,4.10
2019-03-18T23:17:34.222Z,4.10
2019-03-18T23:20:03.458Z,4.10
2019-03-18T23:22:32.737Z,4.10
2019-03-18T23:25:07.049Z,4.00
2019-03-18T23:27:32.906Z,4.00
2019-03-18T23:30:02.195Z,3.90
2019-03-18T23:32:31.498Z,3.90
2019-03-18T23:35:00.816Z,3.90
2019-03-18T23:37:30.131Z,3.80
2019-03-18T23:39:59.466Z,3.80
2019-03-18T23:42:28.697Z,3.80
2019-03-18T23:44:57.863Z,3.80
2019-03-18T23:47:27.106Z,3.80
2019-03-18T23:49:56.346Z,3.70
2019-03-18T23:52:25.630Z,3.70
2019-03-18T23:54:54.851Z,3.70
2019-03-18T23:57:24.086Z,3.70
2019-03-18T23:59:53.411Z,3.60
